createdAt,value
2023-02-08T00:04:54.502Z,83.80
2023-02-08T00:09:56.786Z,84.05
2023-02-08T00:14:59.282Z,84.18
2023-02-08T00:20:01.568Z,83.99
2023-02-08T00:25:04.677Z,84.14
2023-02-08T00:30:07.676Z,84.15
2023-02-08T00:35:09.755Z,84.28
2023-02-08T00:40:12.348Z,84.20
2023-02-08T00:45:14.638Z,84.37
2023-02-08T00:50:17.227Z,84.20
2023-02-08T00:55:19.414Z,84.18
2023-02-08T01:00:22.003Z,84.18
2023-02-08T01:05:24.301Z,84.14
2023-02-08T01:10:26.389Z,84.21
2023-02-08T01:15:28.658Z,84.28
2023-02-08T01:20:31.456Z,84.34
2023-02-08T01:25:34.850Z,84.20
2023-02-08T01:30:37.503Z,84.26
2023-02-08T01:35:39.757Z,84.21
2023-02-08T01:40:42.153Z,84.29
2023-02-08T01:45:44.647Z,84.14
2023-02-08T01:51:04.735Z,84.14
2023-02-08T01:56:12.469Z,84.36
2023-02-08T02:01:15.940Z,84.11
2023-02-08T02:06:23.953Z,84.16
2023-02-08T02:11:28.266Z,84.26
2023-02-08T02:16:30.405Z,84.26
2023-02-08T02:21:55.320Z,84.28
2023-02-08T02:27:03.650Z,84.08
2023-02-08T02:32:33.793Z,84.16
2023-02-08T02:37:44.778Z,84.11
2023-02-08T02:43:42.592Z,84.27
2023-02-08T02:49:12.504Z,84.29
2023-02-08T02:54:27.080Z,84.36
2023-02-08T02:59:33.566Z,84.24
2023-02-08T03:04:36.291Z,84.21
2023-02-08T03:10:03.024Z,84.11
2023-02-08T03:15:33.264Z,83.93
2023-02-08T03:20:42.591Z,84.17
2023-02-08T03:26:07.953Z,84.11
2023-02-08T03:31:15.412Z,84.14
2023-02-08T03:36:25.843Z,84.01
2023-02-08T03:41:36.637Z,84.17
2023-02-08T03:46:46.279Z,84.36
2023-02-08T03:51:49.896Z,84.35
2023-02-08T03:57:00.987Z,84.23
2023-02-08T04:02:06.958Z,84.24
2023-02-08T04:07:09.457Z,84.19
2023-02-08T04:12:12.248Z,84.47
2023-02-08T04:17:14.635Z,84.42
2023-02-08T04:22:16.820Z,84.28
2023-02-08T04:27:19.005Z,84.26
2023-02-08T04:32:21.193Z,84.37
2023-02-08T04:37:23.378Z,84.44
2023-02-08T04:42:25.976Z,84.45
2023-02-08T04:47:28.071Z,84.13
2023-02-08T04:52:30.452Z,84.17
2023-02-08T04:57:32.628Z,84.32
2023-02-08T05:02:35.328Z,84.37
2023-02-08T05:07:37.613Z,84.30
2023-02-08T05:12:39.790Z,84.48
2023-02-08T05:17:42.085Z,84.32
2023-02-08T05:22:44.675Z,84.02
2023-02-08T05:27:46.958Z,84.19
2023-02-08T05:32:49.140Z,84.29
2023-02-08T05:37:51.437Z,84.03
2023-02-08T05:42:53.709Z,84.09
2023-02-08T05:47:55.894Z,84.02
2023-02-08T05:52:58.183Z,83.93
2023-02-08T05:58:00.568Z,83.93
2023-02-08T06:03:02.766Z,84.03
2023-02-08T06:08:06.077Z,84.17
2023-02-08T06:13:08.350Z,83.96
2023-02-08T06:18:11.456Z,84.16
2023-02-08T06:23:13.743Z,84.20
2023-02-08T06:28:16.410Z,84.27
2023-02-08T06:33:19.145Z,84.49
2023-02-08T06:38:21.330Z,84.22
2023-02-08T06:43:23.708Z,84.46
2023-02-08T06:48:26.199Z,84.50
2023-02-08T06:53:28.793Z,84.41
2023-02-08T06:58:30.901Z,84.43
2023-02-08T07:03:33.272Z,84.68
2023-02-08T07:08:35.611Z,84.29
2023-02-08T07:13:38.456Z,84.13
2023-02-08T07:18:40.638Z,84.23
2023-02-08T07:23:43.031Z,84.21
2023-02-08T07:28:45.220Z,84.04
2023-02-08T07:33:47.400Z,83.82
2023-02-08T07:38:49.688Z,83.78
2023-02-08T07:43:51.870Z,84.03
2023-02-08T07:48:54.055Z,84.12
2023-02-08T07:53:56.249Z,84.13
2023-02-08T07:58:58.530Z,84.12
2023-02-08T08:04:00.749Z,83.94
2023-02-08T08:09:03.409Z,84.14
2023-02-08T08:14:05.593Z,83.95
2023-02-08T08:19:07.780Z,83.99
2023-02-08T08:24:10.068Z,84.05
2023-02-08T08:29:13.069Z,83.96
2023-02-08T08:34:15.251Z,84.02
2023-02-08T08:39:17.434Z,84.12
2023-02-08T08:44:19.822Z,84.13
2023-02-08T08:49:23.237Z,84.13
2023-02-08T08:54:25.403Z,83.98
2023-02-08T08:59:27.918Z,84.10
2023-02-08T09:04:30.202Z,84.17
2023-02-08T09:09:32.382Z,84.01
2023-02-08T09:14:34.665Z,84.16
2023-02-08T09:19:36.950Z,83.98
2023-02-08T09:24:39.753Z,83.77
2023-02-08T09:29:41.935Z,83.94
2023-02-08T09:34:44.117Z,83.92
2023-02-08T09:39:46.409Z,83.76
2023-02-08T09:45:23.832Z,83.75
2023-02-08T09:50:46.290Z,83.78
2023-02-08T09:56:02.114Z,83.93
2023-02-08T10:01:10.753Z,83.85
2023-02-08T10:06:16.022Z,83.60
2023-02-08T10:11:39.869Z,83.36
2023-02-08T10:17:33.574Z,83.29
2023-02-08T10:23:01.756Z,83.42
2023-02-08T10:28:12.888Z,83.36
2023-02-08T10:33:46.675Z,83.34
2023-02-08T10:38:52.032Z,83.13
2023-02-08T10:44:10.805Z,83.19
2023-02-08T10:49:28.655Z,82.90
2023-02-08T10:54:30.841Z,82.93
2023-02-08T10:59:39.267Z,83.18
2023-02-08T11:04:59.108Z,82.94
2023-02-08T11:10:22.857Z,83.09
2023-02-08T11:15:38.459Z,83.25
2023-02-08T11:20:41.253Z,83.10
2023-02-08T11:25:43.615Z,82.71
2023-02-08T11:30:59.516Z,82.69
2023-02-08T11:36:05.462Z,82.61
2023-02-08T11:41:15.669Z,82.53
2023-02-08T11:46:24.346Z,82.40
2023-02-08T11:51:31.027Z,82.64
2023-02-08T11:56:34.124Z,82.53
2023-02-08T12:01:41.507Z,82.28
2023-02-08T12:06:59.469Z,82.26
2023-02-08T12:12:25.990Z,82.05
2023-02-08T12:17:48.403Z,81.88
2023-02-08T12:23:09.120Z,81.61
2023-02-08T12:28:23.026Z,81.33
2023-02-08T12:33:44.607Z,81.41
2023-02-08T12:39:35.620Z,81.39
2023-02-08T12:45:22.594Z,80.85
2023-02-08T12:50:33.237Z,80.59
2023-02-08T12:55:40.462Z,80.38
2023-02-08T13:00:44.879Z,80.52
2023-02-08T13:06:01.612Z,80.40
2023-02-08T13:11:20.811Z,80.08
2023-02-08T13:16:30.856Z,80.39
2023-02-08T13:21:41.459Z,79.93
2023-02-08T13:26:43.973Z,79.85
2023-02-08T13:31:59.810Z,79.80
2023-02-08T13:37:13.565Z,79.87
2023-02-08T13:42:31.465Z,79.56
2023-02-08T13:47:48.125Z,79.65
2023-02-08T13:52:50.560Z,79.38
2023-02-08T13:57:55.691Z,79.09
2023-02-08T14:03:29.444Z,78.98
2023-02-08T14:09:12.832Z,78.85
2023-02-08T14:14:26.904Z,78.64
2023-02-08T14:19:31.284Z,78.52
2023-02-08T14:24:43.338Z,78.29
2023-02-08T14:30:13.490Z,78.12
2023-02-08T14:35:15.446Z,78.29
2023-02-08T14:40:22.339Z,77.80
2023-02-08T14:45:32.767Z,77.70
2023-02-08T14:50:42.284Z,78.02
2023-02-08T14:56:06.140Z,77.87
2023-02-08T15:01:17.414Z,77.84
2023-02-08T15:06:59.713Z,77.90
2023-02-08T15:12:12.298Z,77.46
2023-02-08T15:17:29.850Z,77.57
2023-02-08T15:22:37.418Z,77.67
2023-02-08T15:27:48.086Z,77.42
2023-02-08T15:32:50.251Z,77.56
2023-02-08T15:37:54.444Z,77.48
2023-02-08T15:43:04.331Z,77.52
2023-02-08T15:48:07.302Z,77.73
2023-02-08T15:53:14.031Z,77.68
2023-02-08T15:58:34.139Z,77.82
2023-02-08T16:03:39.608Z,77.57
2023-02-08T16:08:43.411Z,77.51
2023-02-08T16:13:49.586Z,77.49
2023-02-08T16:19:03.095Z,77.59
2023-02-08T16:24:22.626Z,77.59
2023-02-08T16:29:31.069Z,77.45
2023-02-08T16:34:37.392Z,77.57
2023-02-08T16:39:48.468Z,77.38
2023-02-08T16:45:20.481Z,77.55
2023-02-08T16:50:26.461Z,77.11
2023-02-08T16:55:32.713Z,77.50
2023-02-08T17:00:35.262Z,77.39
2023-02-08T17:05:40.049Z,77.49
2023-02-08T17:10:43.752Z,77.57
2023-02-08T17:15:48.502Z,77.38
2023-02-08T17:20:57.522Z,77.60
2023-02-08T17:26:00.597Z,77.48
2023-02-08T17:31:03.806Z,77.85
2023-02-08T17:36:08.452Z,77.73
2023-02-08T17:41:20.482Z,77.82
2023-02-08T17:46:27.532Z,77.77
2023-02-08T17:51:32.448Z,77.74
2023-02-08T17:56:35.956Z,77.93
2023-02-08T18:01:40.485Z,77.66
2023-02-08T18:06:43.748Z,77.99
2023-02-08T18:11:47.601Z,78.11
2023-02-08T18:16:51.520Z,78.13
2023-02-08T18:21:55.195Z,78.11
2023-02-08T18:26:59.927Z,77.99
2023-02-08T18:32:05.493Z,77.91
2023-02-08T18:37:10.451Z,78.39
2023-02-08T18:53:50.422Z,78.52
2023-02-08T18:58:59.361Z,78.34
2023-02-08T19:04:02.921Z,78.31
2023-02-08T19:09:07.152Z,78.37
2023-02-08T19:14:10.973Z,78.54
2023-02-08T19:19:13.164Z,78.36
2023-02-08T19:24:15.583Z,78.72
2023-02-08T19:29:22.352Z,78.53
2023-02-08T19:34:24.736Z,78.59
2023-02-08T19:39:27.560Z,78.72
2023-02-08T19:44:30.733Z,78.56
2023-02-08T19:49:33.132Z,78.69
2023-02-08T19:54:35.318Z,78.70
2023-02-08T19:59:37.607Z,78.88
2023-02-08T20:04:40.816Z,78.62
2023-02-08T20:09:42.998Z,78.45
2023-02-08T20:14:45.196Z,78.74
2023-02-08T20:19:47.572Z,78.47
2023-02-08T20:24:49.855Z,78.14
2023-02-08T20:29:55.110Z,78.29
2023-02-08T20:36:00.889Z,78.54
2023-02-08T20:41:11.371Z,78.76
2023-02-08T20:46:18.236Z,78.72
2023-02-08T20:51:22.392Z,78.93
2023-02-08T20:56:27.962Z,79.25
2023-02-08T21:01:31.125Z,78.86
2023-02-08T21:06:36.137Z,78.96
2023-02-08T21:11:38.820Z,79.01
2023-02-08T21:16:41.588Z,78.92
2023-02-08T21:21:43.877Z,79.01
2023-02-08T21:26:46.803Z,79.06
2023-02-08T21:31:53.069Z,78.91
2023-02-08T21:36:55.871Z,78.73
2023-02-08T21:41:58.182Z,78.71
2023-02-08T21:47:02.393Z,78.86
2023-02-08T21:52:23.628Z,78.92
2023-02-08T21:57:28.474Z,78.83
2023-02-08T22:02:30.767Z,78.87
2023-02-08T22:07:54.563Z,78.92
2023-02-08T22:12:57.383Z,79.10
2023-02-08T22:18:02.091Z,79.06
2023-02-08T22:23:05.399Z,78.96
2023-02-08T22:28:07.826Z,79.09
2023-02-08T22:33:11.244Z,79.07
2023-02-08T22:38:13.515Z,79.07
2023-02-08T22:43:16.085Z,79.28
2023-02-08T22:48:18.272Z,79.14
2023-02-08T22:53:20.879Z,79.22
2023-02-08T22:58:23.465Z,79.27
2023-02-08T23:03:25.953Z,79.60
2023-02-08T23:08:30.181Z,79.32
2023-02-08T23:13:33.798Z,79.34
2023-02-08T23:18:36.298Z,79.72
2023-02-08T23:23:39.594Z,79.87
2023-02-08T23:28:41.997Z,79.75
2023-02-08T23:33:44.681Z,79.77
2023-02-08T23:38:48.505Z,79.85
2023-02-08T23:43:52.600Z,80.05
2023-02-08T23:48:55.434Z,79.91
2023-02-08T23:53:57.745Z,80.05
2023-02-08T23:59:00.648Z,79.96
